Main page
METAR-TAF:

METAR-TAF

Airports :

Bordeaux, France

Bordeaux–Mérignac Airport

latitude: 44-50N, longitude: 000-42W, elevation: 49 m

Current weather observation

The report was made 26 minutes ago, at 20:00 UTC
Wind 7 kt from the North/Northeast
Temperature 6°C
Humidity 87%
Pressure 1029 hPa
Visibility 10 km or more
no clouds below 1500 m and no cumulonimbus

METAR: LFBD 182000Z AUTO 02007KT CAVOK 06/04 Q1029 NOSIG

Time: 21:26 (20:26 UTC)

Forecast

The report was made 3 hours and 26 minutes ago, at 17:00 UTC
Forecast valid from 18 at 18 UTC to 19 at 24 UTC
Wind 10 kt from the North
Visibility 10 km or more
no clouds below 1500 m and no cumulonimbus
Probability 40% :
Temporary
from 19 at 02 UTC to 19 at 09 UTC
Visibility: 2000 m
Broken clouds at a height of 400 ft
patches of fog
Probability 40% :
Temporary
from 19 at 19 UTC to 19 at 24 UTC
Shallow fog

TAF: LFBD 181700Z 1818/1924 01010KT CAVOK PROB40 TEMPO 1902/1909 2000 BCFG BKN004 PROB40 TEMPO 1919/1924 MIFG TX09/1818Z TN01/1905Z

Weather observations and forecasts of more than 4000 airports (METAR and TAF reports).

The available stations are represented by yellow and red dots on the map.

Hover mouse over dot to see the name of the station.

Then click to see weather observations and forecasts.

To change the map : click on the green buttons with a black cross to zoom in, on the green button with a dash to zoom out, or on the green arrows for adjacent maps.


METAR-TAF: